Time;durP1;ratioP1;P1;durP2;ratioP2;P2;SDS_P1;SDS_P2;PMS_P1;PMS_P2;Temp;Humidity;BMP_temperature;BMP_pressure;BME280_temperature;BME280_humidity;BME280_pressure;Samples;Min_cycle;Max_cycle;Signal;HPM_P1;HPM_P2
2023/08/26 00:01:41;;;;;;;7.25;5.25;;;17.10;99.90;;;;;;6105192;23;20171;-84
2023/08/26 00:04:08;;;;;;;8.38;6.00;;;17.10;99.90;;;;;;6104311;23;20178;-88
2023/08/26 00:06:36;;;;;;;7.43;4.63;;;17.00;99.90;;;;;;6106346;23;20237;-84
2023/08/26 00:09:04;;;;;;;6.57;4.65;;;17.00;99.90;;;;;;6106921;23;20194;-89
2023/08/26 00:11:31;;;;;;;8.23;5.72;;;17.00;99.90;;;;;;6105229;23;20182;-85
2023/08/26 00:13:59;;;;;;;11.75;5.65;;;17.00;99.90;;;;;;6133113;23;20189;-85
2023/08/26 00:16:26;;;;;;;6.57;4.80;;;17.00;99.90;;;;;;6106697;23;20247;-86
2023/08/26 00:18:55;;;;;;;8.20;6.00;;;17.10;99.90;;;;;;6132462;23;20238;-87
2023/08/26 00:21:22;;;;;;;9.85;6.05;;;17.00;99.90;;;;;;6103734;23;20178;-88
2023/08/26 00:23:50;;;;;;;10.55;6.35;;;16.90;99.90;;;;;;6104043;23;20258;-88
2023/08/26 00:26:18;;;;;;;9.07;5.57;;;17.00;99.90;;;;;;6127106;23;20163;-84
2023/08/26 00:28:45;;;;;;;8.88;5.85;;;17.00;99.90;;;;;;6104246;23;20175;-85
2023/08/26 00:31:13;;;;;;;7.60;5.22;;;17.00;99.90;;;;;;6135443;23;20254;-85
2023/08/26 00:33:40;;;;;;;8.40;5.78;;;17.00;99.90;;;;;;6108357;23;20657;-87
2023/08/26 00:36:08;;;;;;;8.85;6.43;;;17.00;99.90;;;;;;6106403;23;20167;-84
2023/08/26 00:38:36;;;;;;;10.60;5.93;;;16.90;99.90;;;;;;6106356;23;20223;-85
2023/08/26 00:41:03;;;;;;;8.43;5.90;;;16.90;99.90;;;;;;6105362;23;20191;-86
2023/08/26 00:43:31;;;;;;;9.00;6.25;;;16.90;99.90;;;;;;6107966;23;20254;-85
2023/08/26 00:45:59;;;;;;;7.35;4.93;;;17.00;99.90;;;;;;6104740;23;20195;-88
2023/08/26 00:48:28;;;;;;;5.88;4.93;;;17.00;99.90;;;;;;6104541;23;20179;-85
2023/08/26 00:50:56;;;;;;;9.80;4.78;;;17.00;99.90;;;;;;6076472;23;20222;-88
2023/08/26 00:53:24;;;;;;;9.00;4.97;;;17.10;99.90;;;;;;6100662;23;20187;-89
2023/08/26 00:55:52;;;;;;;12.30;6.30;;;17.10;99.90;;;;;;6079036;23;20187;-88
2023/08/26 00:58:20;;;;;;;10.00;6.43;;;17.00;99.90;;;;;;6101003;23;20214;-89
2023/08/26 01:00:48;;;;;;;8.93;5.60;;;17.00;99.90;;;;;;6101878;23;20178;-88
2023/08/26 01:03:16;;;;;;;7.07;5.60;;;17.00;99.90;;;;;;6079257;23;20175;-89
2023/08/26 01:05:44;;;;;;;7.90;5.85;;;17.10;99.90;;;;;;6078922;23;20198;-87
2023/08/26 01:08:13;;;;;;;8.05;6.18;;;16.90;99.90;;;;;;6102036;23;20230;-87
2023/08/26 01:11:03;;;;;;;9.02;6.22;;;17.00;99.90;;;;;;6100521;23;20163;-88
2023/08/26 01:14:03;;;;;;;10.30;6.45;;;16.90;99.90;;;;;;6101228;23;20225;-88
2023/08/26 01:16:35;;;;;;;10.98;5.93;;;16.90;99.90;;;;;;6100034;23;20159;-86
2023/08/26 01:19:04;;;;;;;10.25;6.43;;;16.90;99.90;;;;;;6078588;23;20198;-88
2023/08/26 01:21:37;;;;;;;12.77;6.05;;;16.90;99.90;;;;;;6098979;23;20168;-88
2023/08/26 01:24:06;;;;;;;7.53;5.70;;;16.90;99.90;;;;;;6078339;23;20871;-88
2023/08/26 01:26:33;;;;;;;7.85;6.43;;;16.90;99.90;;;;;;6129210;23;20164;-87
2023/08/26 01:29:01;;;;;;;9.50;6.10;;;16.90;99.90;;;;;;6101749;23;20177;-87
2023/08/26 01:31:31;;;;;;;13.13;6.78;;;16.90;99.90;;;;;;6074971;23;20903;-88
2023/08/26 01:34:32;;;;;;;11.20;7.05;;;16.90;99.90;;;;;;6099435;23;20187;-88
2023/08/26 01:37:02;;;;;;;10.80;6.15;;;16.90;99.90;;;;;;6052005;23;20839;-89
2023/08/26 01:39:30;;;;;;;8.38;6.55;;;16.90;99.90;;;;;;6075676;23;20171;-87
2023/08/26 01:42:01;;;;;;;7.35;6.10;;;16.90;99.90;;;;;;6074084;23;20167;-89
2023/08/26 01:44:30;;;;;;;6.95;6.03;;;16.90;99.90;;;;;;6125412;23;20151;-90
2023/08/26 01:46:58;;;;;;;9.05;6.68;;;16.80;99.90;;;;;;6077629;23;20175;-88
2023/08/26 01:49:25;;;;;;;9.35;6.40;;;16.80;99.90;;;;;;6074533;23;20168;-87
2023/08/26 01:51:53;;;;;;;10.15;5.70;;;16.80;99.90;;;;;;6100274;23;20171;-90
2023/08/26 01:54:20;;;;;;;12.93;5.25;;;16.80;99.90;;;;;;6098526;23;20191;-86
2023/08/26 01:56:48;;;;;;;7.22;4.63;;;16.90;99.90;;;;;;6101278;23;20250;-87
2023/08/26 01:59:15;;;;;;;7.15;4.68;;;16.90;99.90;;;;;;6097939;23;20225;-85
2023/08/26 02:01:43;;;;;;;8.13;5.88;;;17.00;99.90;;;;;;6075370;23;20179;-88
2023/08/26 02:04:11;;;;;;;11.27;6.88;;;16.90;99.90;;;;;;6101068;23;20203;-87
2023/08/26 02:06:40;;;;;;;7.43;4.97;;;16.80;99.90;;;;;;6076573;23;20171;-85
2023/08/26 02:09:08;;;;;;;10.20;6.07;;;16.80;99.90;;;;;;6074354;23;20752;-87
2023/08/26 02:11:35;;;;;;;7.35;5.97;;;16.90;99.90;;;;;;6098288;23;20282;-88
2023/08/26 02:14:03;;;;;;;9.68;6.35;;;16.90;99.90;;;;;;6098959;23;20197;-87
2023/08/26 02:16:30;;;;;;;6.38;4.80;;;17.00;99.90;;;;;;6099602;23;20175;-85
2023/08/26 02:18:58;;;;;;;7.70;5.40;;;17.00;99.90;;;;;;6125699;23;20166;-87
2023/08/26 02:21:25;;;;;;;9.95;5.85;;;17.00;99.90;;;;;;6099533;23;20171;-88
2023/08/26 02:23:53;;;;;;;11.68;6.32;;;17.00;99.90;;;;;;6099462;23;20171;-85
2023/08/26 02:26:21;;;;;;;8.48;5.75;;;16.90;99.90;;;;;;6099916;23;20182;-89
2023/08/26 02:28:48;;;;;;;9.52;6.22;;;16.80;99.90;;;;;;6073780;23;20167;-86
2023/08/26 02:31:16;;;;;;;9.13;6.40;;;16.80;99.90;;;;;;6074192;23;20197;-87
2023/08/26 02:33:44;;;;;;;7.90;5.65;;;16.70;99.90;;;;;;6074735;23;20202;-87
2023/08/26 02:36:12;;;;;;;7.03;5.10;;;16.70;99.90;;;;;;6098456;23;20167;-87
2023/08/26 02:38:39;;;;;;;12.38;6.55;;;16.70;99.90;;;;;;6098238;23;20167;-88
2023/08/26 02:41:07;;;;;;;6.82;5.95;;;16.70;99.90;;;;;;6098624;23;20402;-89
2023/08/26 02:43:35;;;;;;;7.88;6.10;;;16.80;99.90;;;;;;6099201;23;20666;-87
2023/08/26 02:46:02;;;;;;;9.05;6.38;;;16.80;99.90;;;;;;6124973;23;20164;-88
2023/08/26 02:48:30;;;;;;;7.40;5.82;;;16.70;99.90;;;;;;6096996;23;20163;-88
2023/08/26 02:50:59;;;;;;;9.98;5.38;;;16.80;99.90;;;;;;6124945;23;20163;-88
2023/08/26 02:53:30;;;;;;;9.82;6.95;;;16.80;99.90;;;;;;6098561;23;20198;-88
2023/08/26 02:55:58;;;;;;;12.55;6.30;;;16.80;99.90;;;;;;6099960;23;20595;-88
2023/08/26 02:58:26;;;;;;;8.40;4.85;;;16.80;99.90;;;;;;6100089;23;20254;-88
2023/08/26 03:00:55;;;;;;;9.52;6.15;;;16.80;99.90;;;;;;6076508;23;20905;-87
2023/08/26 03:03:22;;;;;;;10.77;6.60;;;16.80;99.90;;;;;;6077863;23;20197;-88
2023/08/26 03:05:54;;;;;;;7.97;6.07;;;16.70;99.90;;;;;;6078321;23;20185;-86
2023/08/26 03:08:22;;;;;;;8.68;6.45;;;16.70;99.90;;;;;;6100789;23;20198;-87
2023/08/26 03:11:16;;;;;;;7.47;5.90;;;16.70;99.90;;;;;;6099849;23;20254;-89
2023/08/26 03:13:44;;;;;;;9.70;6.28;;;16.70;99.90;;;;;;6094856;23;20274;-88
2023/08/26 03:16:11;;;;;;;8.35;6.43;;;16.70;99.90;;;;;;6099018;23;20202;-88
2023/08/26 03:18:39;;;;;;;10.10;6.30;;;16.70;99.90;;;;;;6076906;23;20559;-88
2023/08/26 03:21:09;;;;;;;9.98;6.47;;;16.60;99.90;;;;;;6076314;23;20777;-89
2023/08/26 03:23:37;;;;;;;7.93;6.35;;;16.60;99.90;;;;;;6077323;23;20171;-86
2023/08/26 03:26:05;;;;;;;8.10;6.32;;;16.70;99.90;;;;;;6081150;23;20207;-89
2023/08/26 03:28:34;;;;;;;7.07;5.50;;;16.70;99.90;;;;;;6098319;23;20658;-87
2023/08/26 03:31:06;;;;;;;6.22;5.28;;;16.80;99.90;;;;;;6097333;23;20755;-88
2023/08/26 03:33:35;;;;;;;8.68;6.32;;;16.80;99.90;;;;;;6074266;23;20218;-87
2023/08/26 03:36:04;;;;;;;8.70;6.03;;;16.80;99.90;;;;;;6125076;23;20544;-85
2023/08/26 03:38:33;;;;;;;6.90;5.53;;;16.80;99.90;;;;;;6098042;23;20259;-88
2023/08/26 03:41:07;;;;;;;9.52;5.97;;;16.80;99.90;;;;;;6124648;23;20188;-85
2023/08/26 03:43:35;;;;;;;9.25;6.65;;;16.70;99.90;;;;;;6098802;23;20187;-89
2023/08/26 03:46:04;;;;;;;9.15;6.53;;;16.70;99.90;;;;;;6097478;23;20171;-89
2023/08/26 03:48:31;;;;;;;9.20;7.35;;;16.70;99.90;;;;;;6098270;23;20233;-86
2023/08/26 03:50:59;;;;;;;9.35;7.10;;;16.80;99.90;;;;;;6123840;23;20203;-85
2023/08/26 03:53:29;;;;;;;10.68;7.05;;;16.70;99.90;;;;;;6097607;23;20193;-87
2023/08/26 03:55:57;;;;;;;9.57;6.72;;;16.80;99.90;;;;;;6097661;23;20155;-87
2023/08/26 03:58:26;;;;;;;10.70;6.70;;;16.80;99.90;;;;;;6097938;23;20980;-87
2023/08/26 04:01:02;;;;;;;7.03;5.18;;;16.70;99.90;;;;;;6097854;23;20521;-88
2023/08/26 04:03:30;;;;;;;10.75;7.40;;;16.80;99.90;;;;;;6101803;23;20178;-88
2023/08/26 04:06:03;;;;;;;8.52;5.68;;;16.80;99.90;;;;;;6099746;23;20255;-88
2023/08/26 04:08:32;;;;;;;11.82;6.85;;;16.90;99.90;;;;;;6100228;23;20168;-87
2023/08/26 04:11:00;;;;;;;9.65;6.80;;;16.80;99.90;;;;;;6100247;23;20259;-88
2023/08/26 04:13:29;;;;;;;12.90;6.85;;;16.80;99.90;;;;;;6098664;23;20514;-89
2023/08/26 04:15:57;;;;;;;9.23;7.07;;;16.80;99.90;;;;;;6124845;23;20768;-87
2023/08/26 04:18:25;;;;;;;12.68;7.30;;;16.80;99.90;;;;;;6125603;23;20159;-89
2023/08/26 04:20:53;;;;;;;10.48;7.32;;;16.80;99.90;;;;;;6124524;23;20238;-89
2023/08/26 04:23:21;;;;;;;8.45;6.30;;;16.80;99.90;;;;;;6099424;23;20662;-88
2023/08/26 04:25:50;;;;;;;9.82;6.78;;;16.80;99.90;;;;;;6098944;23;20251;-87
2023/08/26 04:28:18;;;;;;;9.30;6.57;;;16.80;99.90;;;;;;6097898;23;21012;-86
2023/08/26 04:30:46;;;;;;;9.98;6.55;;;16.80;99.90;;;;;;6099363;23;20171;-87
2023/08/26 04:33:14;;;;;;;9.60;7.25;;;16.80;99.90;;;;;;6100832;23;20242;-88
2023/08/26 04:35:42;;;;;;;10.65;7.50;;;16.90;99.90;;;;;;6125616;23;20164;-89
2023/08/26 04:38:13;;;;;;;9.98;7.70;;;16.80;99.90;;;;;;6100567;23;20607;-90
2023/08/26 04:40:41;;;;;;;11.07;7.40;;;16.90;99.90;;;;;;6126607;23;20163;-87
2023/08/26 04:43:10;;;;;;;11.02;6.45;;;16.80;99.90;;;;;;6125833;23;20159;-88
2023/08/26 04:45:39;;;;;;;10.95;7.38;;;16.90;99.90;;;;;;6097686;23;20690;-88
2023/08/26 04:48:07;;;;;;;8.15;6.25;;;16.80;99.90;;;;;;6096250;23;20175;-87
2023/08/26 04:50:36;;;;;;;9.18;7.40;;;16.80;99.90;;;;;;6075249;23;20607;-84
2023/08/26 04:53:04;;;;;;;10.82;6.57;;;16.80;99.90;;;;;;6075319;23;20250;-88
2023/08/26 04:55:31;;;;;;;10.10;7.75;;;16.80;99.90;;;;;;6098477;23;20194;-89
2023/08/26 04:58:02;;;;;;;9.20;7.43;;;16.80;99.90;;;;;;6100159;23;20227;-88
2023/08/26 05:00:29;;;;;;;8.55;6.88;;;16.80;99.90;;;;;;6075888;23;20175;-85
2023/08/26 05:02:57;;;;;;;10.20;7.05;;;16.80;99.90;;;;;;6075160;23;20171;-87
2023/08/26 05:05:25;;;;;;;9.10;6.43;;;16.80;99.90;;;;;;6097934;23;20195;-86
2023/08/26 05:07:52;;;;;;;9.95;6.93;;;16.80;99.90;;;;;;6124033;23;20171;-88
2023/08/26 05:10:21;;;;;;;9.65;7.00;;;16.80;99.90;;;;;;6126185;23;20167;-87
2023/08/26 05:12:49;;;;;;;13.27;6.53;;;16.90;99.90;;;;;;6101302;23;20622;-87
2023/08/26 05:15:16;;;;;;;8.55;6.53;;;16.90;99.90;;;;;;6126589;23;20215;-88
2023/08/26 05:17:44;;;;;;;14.73;7.55;;;16.90;99.90;;;;;;6101715;23;20250;-87
2023/08/26 05:20:11;;;;;;;9.60;7.00;;;16.90;99.90;;;;;;6077441;23;20167;-88
2023/08/26 05:22:41;;;;;;;8.52;6.32;;;16.90;99.90;;;;;;6127652;23;20159;-88
2023/08/26 05:25:09;;;;;;;10.50;7.57;;;16.90;99.90;;;;;;6100743;23;20774;-85
2023/08/26 05:27:37;;;;;;;11.27;6.65;;;16.90;99.90;;;;;;6077148;23;20183;-88
2023/08/26 05:30:06;;;;;;;11.00;6.72;;;17.00;99.90;;;;;;6100026;23;20180;-88
2023/08/26 05:32:40;;;;;;;11.13;7.65;;;17.00;99.90;;;;;;6100083;23;20163;-89
2023/08/26 05:35:08;;;;;;;10.00;6.97;;;17.00;99.90;;;;;;6101139;23;20191;-86
2023/08/26 05:37:38;;;;;;;10.02;7.28;;;17.00;99.90;;;;;;6101631;23;20171;-85
2023/08/26 05:40:06;;;;;;;12.75;8.30;;;17.00;99.90;;;;;;6101784;23;20202;-89
2023/08/26 05:42:34;;;;;;;11.93;7.53;;;17.00;99.90;;;;;;6099012;23;20218;-87
2023/08/26 05:45:02;;;;;;;13.13;7.15;;;17.00;99.90;;;;;;6098078;23;20564;-88
2023/08/26 05:47:31;;;;;;;9.18;7.63;;;17.00;99.90;;;;;;6098082;23;20896;-88
2023/08/26 05:49:59;;;;;;;11.43;8.10;;;17.10;99.90;;;;;;6097817;23;20182;-89
2023/08/26 05:52:28;;;;;;;14.98;7.63;;;17.10;99.90;;;;;;6101251;23;20171;-87
2023/08/26 05:54:57;;;;;;;11.00;7.32;;;17.00;99.90;;;;;;6101985;23;20197;-87
2023/08/26 05:57:24;;;;;;;13.38;7.50;;;17.00;99.90;;;;;;6098758;23;20171;-88
2023/08/26 05:59:52;;;;;;;11.20;7.22;;;17.00;99.90;;;;;;6074973;23;20529;-87
2023/08/26 06:02:19;;;;;;;9.60;7.85;;;17.00;99.90;;;;;;6075471;23;20171;-87
2023/08/26 06:04:47;;;;;;;11.70;7.50;;;17.10;99.90;;;;;;6098262;23;20170;-86
2023/08/26 06:07:15;;;;;;;8.02;6.25;;;17.10;99.90;;;;;;6098322;23;20238;-83
2023/08/26 06:09:43;;;;;;;11.73;8.27;;;17.10;99.90;;;;;;6077401;23;20175;-85
2023/08/26 06:12:11;;;;;;;9.02;7.53;;;17.10;99.90;;;;;;6099371;23;20250;-87
2023/08/26 06:14:38;;;;;;;10.75;6.93;;;17.10;99.90;;;;;;6095895;23;20191;-87
2023/08/26 06:17:06;;;;;;;9.80;7.85;;;17.20;99.90;;;;;;6072270;23;20198;-89
2023/08/26 06:19:33;;;;;;;9.95;7.22;;;17.20;99.90;;;;;;6095482;23;20171;-86
2023/08/26 06:22:01;;;;;;;7.53;6.35;;;17.20;99.90;;;;;;6073594;23;20205;-88
2023/08/26 06:24:29;;;;;;;9.88;7.68;;;17.20;99.90;;;;;;6096706;23;20226;-86
2023/08/26 06:26:56;;;;;;;9.98;7.07;;;17.20;99.90;;;;;;6096021;23;20175;-88
2023/08/26 06:29:25;;;;;;;9.82;7.88;;;17.20;99.90;;;;;;6095696;23;20183;-89
2023/08/26 06:31:53;;;;;;;9.02;7.22;;;17.20;99.90;;;;;;6095238;23;20210;-87
2023/08/26 06:34:24;;;;;;;10.38;7.30;;;17.20;99.90;;;;;;6072327;23;20244;-87
2023/08/26 06:36:52;;;;;;;14.15;8.18;;;17.20;99.90;;;;;;6095371;23;20190;-88
2023/08/26 06:39:20;;;;;;;11.07;7.25;;;17.20;99.90;;;;;;6094769;23;20166;-86
2023/08/26 06:41:47;;;;;;;10.00;7.78;;;17.20;99.90;;;;;;6095845;23;20716;-86
2023/08/26 06:44:15;;;;;;;13.05;7.82;;;17.20;99.90;;;;;;6120824;23;20171;-89
2023/08/26 06:46:43;;;;;;;10.75;8.32;;;17.20;99.90;;;;;;6121349;23;20212;-84
2023/08/26 06:49:10;;;;;;;11.13;7.13;;;17.20;99.90;;;;;;6095631;23;20170;-87
2023/08/26 06:51:38;;;;;;;10.30;8.48;;;17.30;99.90;;;;;;6094368;23;20175;-88
2023/08/26 06:54:06;;;;;;;8.98;7.55;;;17.30;99.90;;;;;;6095280;23;20175;-87
2023/08/26 06:56:34;;;;;;;10.85;7.25;;;17.30;99.90;;;;;;6094958;23;20259;-89
2023/08/26 06:59:02;;;;;;;11.55;7.95;;;17.40;99.90;;;;;;6121490;23;20891;-88
2023/08/26 07:01:31;;;;;;;9.55;7.53;;;17.40;99.90;;;;;;6122735;23;20155;-87
2023/08/26 07:04:05;;;;;;;11.68;8.18;;;17.40;99.90;;;;;;6120569;23;20183;-89
2023/08/26 07:06:34;;;;;;;10.57;8.35;;;17.40;99.90;;;;;;6121622;23;20566;-88
2023/08/26 07:09:04;;;;;;;10.77;7.88;;;17.50;99.90;;;;;;6072819;23;20231;-84
2023/08/26 07:11:33;;;;;;;10.55;7.85;;;17.50;99.90;;;;;;6121780;23;20159;-88
2023/08/26 07:14:02;;;;;;;11.05;7.88;;;17.60;99.90;;;;;;6097218;23;20159;-88
2023/08/26 07:16:30;;;;;;;9.82;8.43;;;17.60;99.90;;;;;;6120076;23;20267;-89
2023/08/26 07:18:58;;;;;;;11.27;8.05;;;17.60;99.90;;;;;;6121261;23;20170;-88
2023/08/26 07:21:26;;;;;;;11.05;7.82;;;17.60;99.90;;;;;;6121414;23;20603;-87
2023/08/26 07:23:54;;;;;;;11.65;8.02;;;17.60;99.90;;;;;;6095313;23;20554;-86
2023/08/26 07:26:21;;;;;;;10.07;8.18;;;17.60;99.90;;;;;;6095729;23;20276;-85
2023/08/26 07:28:51;;;;;;;12.75;8.13;;;17.60;99.90;;;;;;6120883;23;20170;-85
2023/08/26 07:31:19;;;;;;;11.98;9.13;;;17.60;99.90;;;;;;6095613;23;20171;-88
2023/08/26 07:33:47;;;;;;;13.75;9.30;;;17.60;99.90;;;;;;6106575;23;20243;-83
2023/08/26 07:36:15;;;;;;;11.38;8.02;;;17.60;99.90;;;;;;6130706;23;20218;-84
2023/08/26 07:38:43;;;;;;;13.40;8.68;;;17.60;99.90;;;;;;6133673;23;20164;-83
2023/08/26 07:41:10;;;;;;;12.38;8.02;;;17.60;99.90;;;;;;6134253;23;20163;-82
2023/08/26 07:43:38;;;;;;;10.13;8.27;;;17.70;99.90;;;;;;6127209;23;20634;-88
2023/08/26 07:46:05;;;;;;;12.43;7.75;;;17.80;99.90;;;;;;6097144;23;20163;-90
2023/08/26 07:48:36;;;;;;;15.57;9.32;;;17.80;99.90;;;;;;6127019;23;20215;-86
2023/08/26 07:51:04;;;;;;;10.52;8.68;;;17.90;99.90;;;;;;6081242;23;20590;-85
2023/08/26 07:53:35;;;;;;;16.98;8.88;;;17.80;99.90;;;;;;6100716;23;20175;-87
2023/08/26 07:56:02;;;;;;;11.82;8.63;;;17.90;99.90;;;;;;6073254;23;20274;-88
2023/08/26 07:58:30;;;;;;;11.32;7.97;;;17.90;99.90;;;;;;6110930;23;20496;-87
2023/08/26 08:00:57;;;;;;;11.32;8.85;;;17.90;99.90;;;;;;6072856;23;20174;-87
2023/08/26 08:03:25;;;;;;;11.13;9.15;;;17.80;99.90;;;;;;6096434;23;20247;-85
2023/08/26 08:05:53;;;;;;;11.55;8.45;;;17.80;99.90;;;;;;6122240;23;20231;-86
2023/08/26 08:08:20;;;;;;;13.43;8.70;;;17.80;99.90;;;;;;6072707;23;20175;-87
2023/08/26 08:10:49;;;;;;;13.18;9.43;;;17.80;99.90;;;;;;6122037;23;20170;-88
2023/08/26 08:13:17;;;;;;;10.32;8.60;;;17.90;99.90;;;;;;6069240;23;20627;-86
2023/08/26 08:15:45;;;;;;;10.23;8.10;;;17.90;99.90;;;;;;6121443;23;20199;-87
2023/08/26 08:18:13;;;;;;;10.40;8.32;;;17.90;99.90;;;;;;6122364;23;20154;-84
2023/08/26 08:20:40;;;;;;;10.35;8.20;;;17.90;99.90;;;;;;6071184;23;20167;-88
2023/08/26 08:23:08;;;;;;;11.32;8.57;;;17.90;99.90;;;;;;6122015;23;20160;-86
2023/08/26 08:25:35;;;;;;;12.70;8.77;;;17.90;99.90;;;;;;6101662;23;20242;-85
2023/08/26 08:28:03;;;;;;;12.00;9.02;;;17.90;99.90;;;;;;6105687;23;20167;-86
2023/08/26 08:30:30;;;;;;;12.82;8.90;;;17.90;99.90;;;;;;6134025;23;20611;-86
2023/08/26 08:32:58;;;;;;;11.65;9.15;;;17.90;99.90;;;;;;6102898;23;20167;-87
2023/08/26 08:35:26;;;;;;;14.05;9.32;;;18.00;99.90;;;;;;6079749;23;20214;-87
2023/08/26 08:37:55;;;;;;;10.73;8.75;;;18.00;99.90;;;;;;6079047;23;20228;-89
2023/08/26 08:40:24;;;;;;;13.40;9.50;;;18.00;99.90;;;;;;6078136;23;20195;-88
2023/08/26 08:42:57;;;;;;;9.70;8.15;;;18.00;99.90;;;;;;6128355;23;20162;-85
2023/08/26 08:45:26;;;;;;;16.02;9.85;;;18.10;99.90;;;;;;6104946;23;20151;-89
2023/08/26 08:47:56;;;;;;;10.82;8.55;;;18.10;99.90;;;;;;6105309;23;20168;-87
2023/08/26 08:50:25;;;;;;;14.55;8.82;;;18.10;99.90;;;;;;6101678;23;20234;-86
2023/08/26 08:52:56;;;;;;;12.82;9.23;;;18.20;99.90;;;;;;6080041;23;20228;-88
2023/08/26 08:55:26;;;;;;;9.88;8.75;;;18.20;99.90;;;;;;6128868;23;20604;-85
2023/08/26 08:57:56;;;;;;;13.55;8.85;;;18.20;99.90;;;;;;6128964;23;20222;-89
2023/08/26 09:00:25;;;;;;;14.88;8.80;;;18.20;99.90;;;;;;6102701;23;20219;-85
2023/08/26 09:02:58;;;;;;;13.02;9.07;;;18.20;99.90;;;;;;6104226;23;20163;-85
2023/08/26 09:05:28;;;;;;;15.52;9.63;;;18.20;99.90;;;;;;6078437;23;20159;-86
2023/08/26 09:08:01;;;;;;;13.48;9.23;;;18.20;99.90;;;;;;6100462;23;20734;-88
2023/08/26 09:10:33;;;;;;;12.07;9.05;;;18.30;99.90;;;;;;6124298;23;20171;-87
2023/08/26 09:13:03;;;;;;;11.27;8.75;;;18.20;99.90;;;;;;6100035;23;20167;-89
2023/08/26 09:15:30;;;;;;;14.05;8.90;;;18.30;99.90;;;;;;6102399;23;20190;-88
2023/08/26 09:17:58;;;;;;;13.43;8.80;;;18.30;99.90;;;;;;6100394;23;20243;-85
2023/08/26 09:20:29;;;;;;;11.45;9.88;;;18.30;99.90;;;;;;6127062;23;20159;-88
2023/08/26 09:23:04;;;;;;;14.00;9.20;;;18.30;99.90;;;;;;6075329;23;20250;-89
2023/08/26 09:25:32;;;;;;;16.33;10.23;;;18.30;99.90;;;;;;6125550;23;20163;-85
2023/08/26 09:28:03;;;;;;;14.95;9.32;;;18.30;99.90;;;;;;6075873;23;20172;-88
2023/08/26 09:30:31;;;;;;;11.68;9.20;;;18.30;99.90;;;;;;6098092;23;20174;-89
2023/08/26 09:32:58;;;;;;;11.18;8.73;;;18.30;99.90;;;;;;6097883;23;20187;-88
2023/08/26 09:35:26;;;;;;;13.25;9.93;;;18.40;99.90;;;;;;6098238;23;20669;-88
2023/08/26 09:37:58;;;;;;;11.20;8.93;;;18.40;99.90;;;;;;6075463;23;20551;-88
2023/08/26 09:40:27;;;;;;;14.52;10.38;;;18.40;99.90;;;;;;6098276;23;20205;-88
2023/08/26 09:42:55;;;;;;;12.35;10.02;;;18.40;99.90;;;;;;6098684;23;20190;-88
2023/08/26 09:45:23;;;;;;;11.88;9.82;;;18.40;99.90;;;;;;6097250;23;20169;-90
2023/08/26 09:47:55;;;;;;;12.93;9.27;;;18.40;99.90;;;;;;6123783;23;20195;-86
2023/08/26 09:50:32;;;;;;;13.45;10.15;;;18.40;99.90;;;;;;6097861;23;20175;-89
2023/08/26 09:53:03;;;;;;;11.75;9.40;;;18.50;99.90;;;;;;6100666;23;20158;-87
2023/08/26 09:55:33;;;;;;;11.65;9.27;;;18.50;99.90;;;;;;6075792;23;20191;-88
2023/08/26 09:58:06;;;;;;;12.63;9.77;;;18.40;99.90;;;;;;6098598;23;20209;-88
2023/08/26 10:00:34;;;;;;;13.50;9.10;;;18.50;99.90;;;;;;6098276;23;20233;-87
2023/08/26 10:03:06;;;;;;;12.30;9.57;;;18.50;99.90;;;;;;6104079;23;20152;-86
2023/08/26 10:05:38;;;;;;;14.50;10.10;;;18.50;99.90;;;;;;6101947;23;20187;-89
2023/08/26 10:08:10;;;;;;;12.75;9.35;;;18.50;99.90;;;;;;6100069;23;20163;-89
2023/08/26 10:10:53;;;;;;;13.23;9.73;;;18.50;99.90;;;;;;6125675;23;20152;-88
2023/08/26 10:13:24;;;;;;;14.98;10.43;;;18.50;99.90;;;;;;6100062;23;20566;-88
2023/08/26 10:15:54;;;;;;;12.68;9.77;;;18.50;99.90;;;;;;6101527;23;20167;-88
2023/08/26 10:18:45;;;;;;;14.48;10.15;;;18.60;99.90;;;;;;6125185;23;20158;-89
2023/08/26 10:21:13;;;;;;;14.45;10.70;;;18.60;99.90;;;;;;6100060;23;20159;-89
2023/08/26 10:23:42;;;;;;;14.80;10.63;;;18.60;99.90;;;;;;6075894;23;20191;-90
2023/08/26 10:26:10;;;;;;;14.52;11.38;;;18.70;99.90;;;;;;6126632;23;20163;-88
2023/08/26 10:28:39;;;;;;;14.73;9.65;;;18.70;99.90;;;;;;6100824;23;20163;-87
2023/08/26 10:31:17;;;;;;;13.43;10.30;;;18.70;99.90;;;;;;6098190;23;20163;-89
2023/08/26 10:34:09;;;;;;;14.65;10.85;;;18.80;99.90;;;;;;6125885;23;20202;-86
2023/08/26 10:36:45;;;;;;;15.25;11.65;;;18.80;99.90;;;;;;6101391;23;20187;-89
2023/08/26 10:39:17;;;;;;;12.38;11.07;;;18.80;99.90;;;;;;6100508;23;20178;-88
2023/08/26 10:42:10;;;;;;;16.77;10.70;;;18.80;99.90;;;;;;6104441;23;20186;-88
2023/08/26 10:44:39;;;;;;;13.73;11.35;;;18.90;99.90;;;;;;6135213;23;20152;-88
2023/08/26 10:47:07;;;;;;;12.93;11.10;;;18.90;99.90;;;;;;6081782;23;20227;-85
2023/08/26 10:49:37;;;;;;;15.02;11.00;;;18.90;99.90;;;;;;6103215;23;20233;-87
2023/08/26 10:52:18;;;;;;;13.55;12.13;;;19.00;99.90;;;;;;6103933;23;20192;-90
2023/08/26 10:54:46;;;;;;;15.02;10.98;;;19.00;99.90;;;;;;6106827;23;20921;-87
2023/08/26 10:57:15;;;;;;;14.52;10.82;;;19.10;99.90;;;;;;6082221;23;20286;-85
2023/08/26 10:59:45;;;;;;;14.75;11.10;;;19.10;99.90;;;;;;6130912;23;20183;-86
2023/08/26 11:02:12;;;;;;;13.15;10.23;;;19.10;99.90;;;;;;6080540;23;20174;-88
2023/08/26 11:04:45;;;;;;;13.13;10.35;;;19.10;99.90;;;;;;6098069;23;20599;-89
2023/08/26 11:07:16;;;;;;;15.35;11.50;;;19.10;99.90;;;;;;6097154;23;20211;-90
2023/08/26 11:09:45;;;;;;;13.85;11.32;;;19.10;99.90;;;;;;6098478;23;20187;-88
2023/08/26 11:12:28;;;;;;;14.75;11.15;;;19.10;99.90;;;;;;6125417;23;20261;-88
2023/08/26 11:15:06;;;;;;;11.30;9.50;;;19.10;99.90;;;;;;6104012;23;20530;-84
2023/08/26 11:17:34;;;;;;;12.43;10.07;;;19.10;99.90;;;;;;6075743;23;20832;-91
2023/08/26 11:20:22;;;;;;;13.70;10.50;;;19.10;99.90;;;;;;6103036;23;20148;-90
2023/08/26 11:22:50;;;;;;;13.43;10.77;;;19.20;99.90;;;;;;6097742;23;20222;-89
2023/08/26 11:25:19;;;;;;;15.25;10.80;;;19.20;99.90;;;;;;6098878;23;20163;-88
2023/08/26 11:27:48;;;;;;;13.25;10.75;;;19.10;99.90;;;;;;6098415;23;20163;-87
2023/08/26 11:30:15;;;;;;;14.25;10.73;;;19.10;99.90;;;;;;6097737;23;21008;-88
2023/08/26 11:32:48;;;;;;;15.77;11.18;;;19.10;99.90;;;;;;6120646;23;20678;-87
2023/08/26 11:35:19;;;;;;;12.20;10.85;;;19.20;99.90;;;;;;6071772;23;20222;-87
2023/08/26 11:37:54;;;;;;;15.40;10.13;;;19.20;99.90;;;;;;6089614;23;20182;-85
2023/08/26 11:40:24;;;;;;;13.18;9.98;;;19.20;99.90;;;;;;6123414;23;20147;-88
2023/08/26 11:42:52;;;;;;;14.15;12.00;;;19.20;99.90;;;;;;6073792;23;20172;-88
2023/08/26 11:45:20;;;;;;;15.55;11.82;;;19.20;99.90;;;;;;6096928;23;20178;-88
2023/08/26 11:47:49;;;;;;;16.95;11.65;;;19.20;99.90;;;;;;6073496;23;20171;-90
2023/08/26 11:50:18;;;;;;;17.52;12.23;;;19.30;99.90;;;;;;6097733;23;20218;-89
2023/08/26 11:52:47;;;;;;;13.93;10.85;;;19.30;99.90;;;;;;6098232;23;20242;-90
2023/08/26 11:55:15;;;;;;;15.88;11.55;;;19.40;99.90;;;;;;6122374;23;20217;-88
2023/08/26 11:57:44;;;;;;;15.15;10.80;;;19.40;99.90;;;;;;6096425;23;20198;-88
2023/08/26 12:00:18;;;;;;;13.70;10.88;;;19.40;99.90;;;;;;6072471;23;20573;-89
2023/08/26 12:02:51;;;;;;;16.45;10.43;;;19.40;99.90;;;;;;6121708;23;20254;-90
2023/08/26 12:05:21;;;;;;;13.95;10.48;;;19.50;99.90;;;;;;6072675;23;20268;-88
2023/08/26 12:07:56;;;;;;;15.57;10.82;;;19.60;99.90;;;;;;6123048;23;20190;-88
2023/08/26 12:10:26;;;;;;;17.02;10.88;;;19.60;99.90;;;;;;6095368;23;20648;-88
2023/08/26 12:13:03;;;;;;;13.13;10.35;;;19.60;99.90;;;;;;6118446;23;20174;-86
2023/08/26 12:15:31;;;;;;;18.20;11.55;;;19.70;99.90;;;;;;6095859;23;20230;-88
2023/08/26 12:18:00;;;;;;;13.50;10.73;;;19.70;99.90;;;;;;6095273;23;20167;-89
2023/08/26 12:20:29;;;;;;;11.73;10.00;;;19.70;99.90;;;;;;6070575;23;20740;-87
2023/08/26 12:23:07;;;;;;;14.43;10.05;;;19.60;99.90;;;;;;6094796;23;20622;-90
2023/08/26 12:25:42;;;;;;;14.63;11.00;;;19.50;99.90;;;;;;6095257;23;20175;-88
2023/08/26 12:28:18;;;;;;;16.13;10.18;;;19.60;99.90;;;;;;6070620;23;20205;-87
2023/08/26 12:30:47;;;;;;;14.55;10.20;;;19.50;99.90;;;;;;6094992;23;20682;-90
2023/08/26 12:33:16;;;;;;;19.80;9.75;;;19.50;99.90;;;;;;6094435;23;20246;-87
2023/08/26 12:35:54;;;;;;;13.90;9.95;;;19.60;99.90;;;;;;6073232;23;20187;-89
2023/08/26 12:38:24;;;;;;;11.90;9.93;;;19.60;99.90;;;;;;6071268;23;20174;-89
2023/08/26 12:40:53;;;;;;;14.13;9.95;;;19.60;99.90;;;;;;6094941;23;20174;-88
2023/08/26 12:43:21;;;;;;;15.13;10.70;;;19.60;99.90;;;;;;6071636;23;20606;-89
2023/08/26 12:45:49;;;;;;;13.80;10.93;;;19.60;99.90;;;;;;6071650;23;20172;-88
2023/08/26 12:48:18;;;;;;;14.80;10.63;;;19.60;99.90;;;;;;6071589;23;20171;-88
2023/08/26 12:51:08;;;;;;;13.25;10.10;;;19.60;99.90;;;;;;6075167;23;20164;-88